Epic Balta — 9VED8 — position and weather

sailwx.info

Track history (hours):
 
Tides and Currents Weather Stations Pressure Air Temp Water Temp Dewpoint Dewpoint Depression Visibility Wind Speed Wind Dir Waves Ship Positions

Epic Balta

Last reported at 2017-Apr-19 01:58 UTC. Time now 2017-May-22 19:30 UTC.
Position N 29°40' W 094°59'.
Warning: this ship's position is 33 days out of date.

Length 100 m; draft 5.2 m.

Type: Ship (hazmat cat D). MMSI: 565525000.

Date/timePositionNaut miles runAvg speedWind from/ knotsBaromVisibWave heightAir tempDewpointWater temp
2017-Apr-19 01:58N 29°40' W 094°59'4 8.8
2017-Apr-19 01:30N 29°44' W 095°02'4 6.5
2017-Apr-19 00:52N 29°45' W 095°06'2 6.8
2017-Apr-19 00:30N 29°44' W 095°09'3 0.3
2017-Apr-18 12:38N 29°44' W 095°12'0 0.0
2017-Apr-18 12:11N 29°44' W 095°12'0 0.0
2017-Apr-18 11:56N 29°44' W 095°12'0 0.0
2017-Apr-18 10:20N 29°44' W 095°12'0 0.0
2017-Apr-18 08:41N 29°44' W 095°12'0 0.0
2017-Apr-18 08:26N 29°44' W 095°12'0 0.0
2017-Apr-17 22:17N 29°44' W 095°12'0 0.0
2017-Apr-17 21:47N 29°44' W 095°12'0 0.0
2017-Apr-17 21:20N 29°44' W 095°12'0 0.0
2017-Apr-17 19:20N 29°44' W 095°12'0 0.0
2017-Apr-17 18:53N 29°44' W 095°12'0 0.0
2017-Apr-17 18:29N 29°44' W 095°12'0 0.0
2017-Apr-17 11:17N 29°44' W 095°12'0 0.0
2017-Apr-17 10:47N 29°44' W 095°12'0 0.0
2017-Apr-16 16:25N 29°44' W 095°12'0 0.2
2017-Apr-16 16:01N 29°44' W 095°12'2 4.4
2017-Apr-16 15:30N 29°45' W 095°10'4 5.8
2017-Apr-16 14:53N 29°45' W 095°06'2 6.2
2017-Apr-16 14:29N 29°44' W 095°03'  
Track history (hours):
 
Tides and Currents Weather Stations Pressure Air Temp Water Temp Dewpoint Dewpoint Depression Visibility Wind Speed Wind Dir Waves Ship Positions

Epic Balta

Last reported at 2017-Apr-19 01:58 UTC. Time now 2017-May-22 19:30 UTC.
Position N 29°40' W 094°59'.
Warning: this ship's position is 33 days out of date.

Length 100 m; draft 5.2 m.

Type: Ship (hazmat cat D). MMSI: 565525000.

Date/timePositionNaut miles runAvg speedWind from/ knotsBaromVisibWave heightAir tempDewpointWater temp
2017-Apr-19 01:58N 29°40' W 094°59'4 8.8
2017-Apr-19 01:30N 29°44' W 095°02'4 6.5
2017-Apr-19 00:52N 29°45' W 095°06'2 6.8
2017-Apr-19 00:30N 29°44' W 095°09'3 0.3
2017-Apr-18 12:38N 29°44' W 095°12'0 0.0
2017-Apr-18 12:11N 29°44' W 095°12'0 0.0
2017-Apr-18 11:56N 29°44' W 095°12'0 0.0
2017-Apr-18 10:20N 29°44' W 095°12'0 0.0
2017-Apr-18 08:41N 29°44' W 095°12'0 0.0
2017-Apr-18 08:26N 29°44' W 095°12'0 0.0
2017-Apr-17 22:17N 29°44' W 095°12'0 0.0
2017-Apr-17 21:47N 29°44' W 095°12'0 0.0
2017-Apr-17 21:20N 29°44' W 095°12'0 0.0
2017-Apr-17 19:20N 29°44' W 095°12'0 0.0
2017-Apr-17 18:53N 29°44' W 095°12'0 0.0
2017-Apr-17 18:29N 29°44' W 095°12'0 0.0
2017-Apr-17 11:17N 29°44' W 095°12'0 0.0
2017-Apr-17 10:47N 29°44' W 095°12'0 0.0
2017-Apr-16 16:25N 29°44' W 095°12'0 0.2
2017-Apr-16 16:01N 29°44' W 095°12'2 4.4
2017-Apr-16 15:30N 29°45' W 095°10'4 5.8
2017-Apr-16 14:53N 29°45' W 095°06'2 6.2
2017-Apr-16 14:29N 29°44' W 095°03'  

Dump ship's entire track history